createdAt,value
2018-11-13T00:02:30.874Z,21.73
2018-11-13T00:06:33.951Z,20.10
2018-11-13T00:10:36.807Z,21.00
2018-11-13T00:14:39.665Z,20.90
2018-11-13T00:18:42.628Z,19.93
2018-11-13T00:22:45.562Z,20.60
2018-11-13T00:26:48.639Z,21.30
2018-11-13T00:30:51.543Z,19.90
2018-11-13T00:34:54.591Z,19.00
2018-11-13T00:38:57.451Z,17.77
2018-11-13T00:43:00.302Z,19.43
2018-11-13T00:47:03.368Z,21.47
2018-11-13T00:51:06.215Z,17.00
2018-11-13T00:55:09.599Z,17.90
2018-11-13T00:59:13.383Z,17.63
2018-11-13T01:03:16.235Z,18.73
2018-11-13T01:07:19.138Z,19.87
2018-11-13T01:11:21.998Z,19.90
2018-11-13T01:15:24.858Z,18.73
2018-11-13T01:19:27.714Z,20.87
2018-11-13T01:23:30.651Z,18.03
2018-11-13T01:27:33.503Z,19.90
2018-11-13T01:31:36.375Z,19.60
2018-11-13T01:35:39.232Z,19.50
2018-11-13T01:39:42.303Z,19.60
2018-11-13T01:43:45.367Z,16.97
2018-11-13T01:47:48.215Z,17.33
2018-11-13T01:51:51.178Z,18.07
2018-11-13T01:55:54.241Z,18.40
2018-11-13T01:59:57.129Z,18.13
2018-11-13T02:03:59.981Z,17.27
2018-11-13T02:08:03.044Z,18.57
2018-11-13T02:12:05.890Z,18.63
2018-11-13T02:16:08.837Z,18.23
2018-11-13T02:20:13.241Z,19.73
2018-11-13T02:24:16.097Z,19.77
2018-11-13T02:28:18.995Z,20.53
2018-11-13T02:32:21.854Z,20.20
2018-11-13T02:36:24.722Z,19.53
2018-11-13T02:40:27.579Z,18.30
2018-11-13T02:44:30.724Z,19.37
2018-11-13T02:48:33.599Z,21.40
2018-11-13T02:52:37.091Z,17.87
2018-11-13T02:56:39.982Z,18.77
2018-11-13T03:00:42.850Z,18.70
2018-11-13T03:04:45.714Z,18.30
2018-11-13T03:08:48.566Z,18.67
2018-11-13T03:12:51.636Z,19.07
2018-11-13T03:16:54.486Z,18.60
2018-11-13T03:20:57.353Z,17.93
2018-11-13T03:25:00.415Z,17.40
2018-11-13T03:29:03.308Z,18.93
2018-11-13T03:33:06.375Z,15.67
2018-11-13T03:37:09.443Z,17.60
2018-11-13T03:41:12.300Z,16.67
2018-11-13T03:45:15.542Z,16.67
2018-11-13T03:49:18.389Z,17.33
2018-11-13T03:53:21.251Z,17.53
2018-11-13T03:57:24.102Z,16.53
2018-11-13T04:01:26.988Z,20.50
2018-11-13T04:05:30.055Z,16.97
2018-11-13T04:09:32.914Z,17.10
2018-11-13T04:13:35.771Z,16.33
2018-11-13T04:17:39.077Z,16.10
2018-11-13T04:21:41.981Z,15.80
2018-11-13T04:25:44.841Z,17.10
2018-11-13T04:29:47.695Z,16.40
2018-11-13T04:33:50.559Z,15.93
2018-11-13T04:37:53.414Z,16.27
2018-11-13T04:41:56.276Z,17.50
2018-11-13T04:45:59.126Z,15.63
2018-11-13T04:50:01.990Z,15.10
2018-11-13T04:54:04.904Z,16.60
2018-11-13T04:58:07.762Z,15.93
2018-11-13T05:02:10.631Z,16.97
2018-11-13T05:06:13.493Z,17.40
2018-11-13T05:10:16.399Z,18.20
2018-11-13T05:14:19.223Z,18.80
2018-11-13T05:18:22.079Z,15.93
2018-11-13T05:22:25.143Z,16.60
2018-11-13T05:26:28.015Z,19.77
2018-11-13T05:30:30.900Z,16.93
2018-11-13T05:34:33.975Z,17.33
2018-11-13T05:38:36.842Z,15.90
2018-11-13T05:42:39.958Z,18.33
2018-11-13T05:46:43.052Z,17.50
2018-11-13T05:50:45.931Z,18.40
2018-11-13T05:54:48.807Z,16.47
2018-11-13T05:58:51.868Z,18.47
2018-11-13T06:02:55.077Z,20.33
2018-11-13T06:06:57.919Z,20.67
2018-11-13T06:11:00.824Z,19.57
2018-11-13T06:15:03.903Z,17.67
2018-11-13T06:19:06.864Z,19.93
2018-11-13T06:23:09.989Z,18.90
2018-11-13T06:27:13.063Z,19.30
2018-11-13T06:31:15.935Z,22.60
2018-11-13T06:35:19.027Z,21.33
2018-11-13T06:39:21.882Z,22.77
2018-11-13T06:43:24.751Z,22.63
2018-11-13T06:47:27.603Z,25.57
2018-11-13T06:51:30.479Z,28.60
2018-11-13T06:55:34.634Z,27.97
2018-11-13T06:59:37.530Z,28.47
2018-11-13T07:03:40.406Z,26.97
2018-11-13T07:07:43.627Z,27.17
2018-11-13T07:11:46.484Z,26.80
2018-11-13T07:15:49.430Z,27.50
2018-11-13T07:19:52.278Z,25.43
2018-11-13T07:23:55.348Z,28.17
2018-11-13T07:27:58.246Z,25.63
2018-11-13T07:32:01.083Z,26.23
2018-11-13T07:36:03.954Z,25.00
2018-11-13T07:40:07.227Z,24.47
2018-11-13T07:44:10.293Z,24.23
2018-11-13T07:48:13.139Z,25.63
2018-11-13T07:52:16.199Z,25.83
2018-11-13T07:56:19.059Z,24.67
2018-11-13T08:00:23.098Z,26.63
2018-11-13T08:04:25.979Z,26.83
2018-11-13T08:08:28.830Z,25.03
2018-11-13T08:12:31.703Z,26.43
2018-11-13T08:16:34.693Z,25.70
2018-11-13T08:20:37.687Z,27.07
2018-11-13T08:24:40.536Z,25.43
2018-11-13T08:28:43.656Z,25.30
2018-11-13T08:32:46.863Z,25.17
2018-11-13T08:36:49.931Z,26.20
2018-11-13T08:40:52.995Z,25.77
2018-11-13T08:44:55.863Z,26.10
2018-11-13T08:48:58.710Z,27.57
2018-11-13T08:53:01.575Z,24.63
2018-11-13T08:57:04.435Z,24.97
2018-11-13T09:01:07.322Z,24.07
2018-11-13T09:05:10.643Z,23.17
2018-11-13T09:09:14.523Z,23.03
2018-11-13T09:13:17.604Z,22.93
2018-11-13T09:17:20.695Z,22.43
2018-11-13T09:21:23.550Z,22.87
2018-11-13T09:25:26.619Z,20.40
2018-11-13T09:29:29.471Z,19.40
2018-11-13T09:33:32.335Z,17.10
2018-11-13T09:37:35.324Z,19.13
2018-11-13T09:41:38.203Z,16.23
2018-11-13T09:45:41.375Z,18.53
2018-11-13T09:49:44.170Z,17.83
2018-11-13T09:53:47.255Z,16.93
2018-11-13T09:57:50.318Z,15.03
2018-11-13T10:01:53.600Z,16.77
2018-11-13T10:05:56.277Z,16.47
2018-11-13T10:09:59.122Z,14.30
2018-11-13T10:14:01.975Z,13.67
2018-11-13T10:18:05.199Z,13.00
2018-11-13T10:22:07.927Z,12.10
2018-11-13T10:26:10.988Z,11.07
2018-11-13T10:30:16.006Z,11.10
2018-11-13T10:34:19.074Z,8.13
2018-11-13T10:38:21.934Z,9.20
2018-11-13T10:42:24.776Z,7.00
2018-11-13T10:46:27.631Z,6.53
2018-11-13T10:50:30.554Z,5.93
2018-11-13T10:54:34.233Z,6.13
2018-11-13T10:58:37.478Z,5.00
2018-11-13T11:02:45.891Z,3.83
2018-11-13T11:06:48.682Z,5.03
2018-11-13T11:10:51.534Z,5.20
2018-11-13T11:14:54.402Z,3.00
2018-11-13T11:18:57.595Z,2.63
2018-11-13T11:23:00.333Z,3.77
2018-11-13T11:27:03.168Z,3.00
2018-11-13T11:31:06.588Z,2.90
2018-11-13T11:35:09.430Z,3.07
2018-11-13T11:39:12.666Z,3.77
2018-11-13T11:43:15.510Z,5.47
2018-11-13T11:47:18.366Z,6.50
2018-11-13T11:51:22.055Z,10.00
2018-11-13T11:55:24.930Z,9.70
2018-11-13T11:59:27.799Z,2.93
2018-11-13T12:03:30.647Z,4.90
2018-11-13T12:07:33.815Z,5.40
2018-11-13T12:11:37.018Z,4.07
2018-11-13T12:15:40.121Z,3.47
2018-11-13T12:19:42.946Z,3.87
2018-11-13T12:23:45.794Z,4.60
2018-11-13T12:27:48.646Z,3.70
2018-11-13T12:31:51.503Z,6.70
2018-11-13T12:35:54.567Z,6.60
2018-11-13T12:39:57.429Z,8.20
2018-11-13T12:44:00.268Z,7.00
2018-11-13T12:48:03.119Z,6.10
2018-11-13T12:52:11.564Z,7.33
2018-11-13T12:56:14.634Z,8.00
2018-11-13T13:00:20.147Z,5.20
2018-11-13T13:04:23.003Z,6.30
2018-11-13T13:08:25.957Z,9.70
2018-11-13T13:12:28.758Z,8.67
2018-11-13T13:16:31.607Z,3.83
2018-11-13T13:20:34.666Z,7.00
2018-11-13T13:24:37.511Z,5.90
2018-11-13T13:28:40.438Z,5.60
2018-11-13T13:32:43.891Z,6.20
2018-11-13T13:36:46.814Z,4.70
2018-11-13T13:40:51.060Z,7.87
2018-11-13T13:44:53.923Z,11.27
2018-11-13T13:48:56.983Z,11.90
2018-11-13T13:53:00.050Z,8.03
2018-11-13T13:57:03.107Z,9.17
2018-11-13T14:01:06.024Z,3.83
2018-11-13T14:05:09.121Z,6.50
2018-11-13T14:09:12.364Z,9.77
2018-11-13T14:13:15.369Z,12.47
2018-11-13T14:17:18.228Z,3.87
2018-11-13T14:21:21.062Z,3.07
2018-11-13T14:25:24.200Z,3.10
2018-11-13T14:29:27.034Z,2.70
2018-11-13T14:33:29.891Z,3.57
2018-11-13T14:37:32.743Z,3.23
2018-11-13T14:41:35.600Z,3.73
2018-11-13T14:45:38.439Z,3.20
2018-11-13T14:49:41.294Z,3.67
2018-11-13T14:53:44.203Z,3.27
2018-11-13T14:57:47.340Z,4.23
2018-11-13T15:01:50.213Z,4.23
2018-11-13T15:05:53.070Z,3.43
2018-11-13T15:09:55.947Z,3.70
2018-11-13T15:13:58.807Z,3.17
2018-11-13T15:18:01.687Z,3.13
2018-11-13T15:22:05.409Z,4.20
2018-11-13T15:26:08.279Z,3.20
2018-11-13T15:30:13.975Z,3.23
2018-11-13T15:34:17.019Z,3.30
2018-11-13T15:38:19.878Z,3.77
2018-11-13T15:42:22.935Z,3.17
2018-11-13T15:46:26.011Z,6.27
2018-11-13T15:50:30.138Z,3.80
2018-11-13T15:54:33.089Z,2.37
2018-11-13T15:58:35.972Z,2.60
2018-11-13T16:02:39.552Z,3.23
2018-11-13T16:06:42.456Z,3.47
2018-11-13T16:10:45.387Z,3.57
2018-11-13T16:14:54.847Z,3.17
2018-11-13T16:18:57.695Z,3.93
2018-11-13T16:23:00.763Z,3.77
2018-11-13T16:27:03.826Z,3.57
2018-11-13T16:31:06.675Z,3.07
2018-11-13T16:35:10.625Z,4.43
2018-11-13T16:39:14.598Z,3.90
2018-11-13T16:43:17.451Z,3.33
2018-11-13T16:47:20.310Z,3.10
2018-11-13T16:51:23.159Z,2.90
2018-11-13T16:55:31.624Z,3.97
2018-11-13T16:59:34.690Z,2.83
2018-11-13T17:03:37.566Z,3.07
2018-11-13T17:07:40.834Z,2.97
2018-11-13T17:11:46.008Z,2.77
2018-11-13T17:15:48.843Z,3.20
2018-11-13T17:19:51.930Z,3.07
2018-11-13T17:23:54.791Z,2.97
2018-11-13T17:27:57.642Z,3.40
2018-11-13T17:32:00.815Z,4.03
2018-11-13T17:36:03.574Z,3.40
2018-11-13T17:40:08.271Z,2.87
2018-11-13T17:44:11.275Z,3.10
2018-11-13T17:48:14.008Z,2.80
2018-11-13T17:52:17.116Z,2.67
2018-11-13T17:56:19.966Z,3.50
2018-11-13T18:00:54.350Z,3.57
2018-11-13T18:04:57.234Z,4.40
2018-11-13T18:09:00.291Z,5.40
2018-11-13T18:13:03.167Z,2.97
2018-11-13T18:17:06.031Z,4.13
2018-11-13T18:21:09.099Z,2.80
2018-11-13T18:25:11.979Z,2.10
2018-11-13T18:29:15.043Z,3.57
2018-11-13T18:33:17.920Z,2.87
2018-11-13T18:37:20.766Z,3.40
2018-11-13T18:41:23.816Z,3.07
2018-11-13T18:45:28.496Z,2.73
2018-11-13T18:49:31.345Z,4.63
2018-11-13T18:53:34.281Z,3.43
2018-11-13T18:57:37.075Z,2.90
2018-11-13T19:01:40.163Z,3.50
2018-11-13T19:05:43.017Z,4.90
2018-11-13T19:09:45.870Z,4.30
2018-11-13T19:13:48.959Z,5.37
2018-11-13T19:17:52.241Z,3.20
2018-11-13T19:21:55.060Z,2.77
2018-11-13T19:25:57.895Z,2.80
2018-11-13T19:30:00.864Z,3.50
2018-11-13T19:34:03.727Z,3.07
2018-11-13T19:38:06.578Z,3.93
2018-11-13T19:42:09.438Z,3.77
2018-11-13T19:46:12.402Z,4.03
2018-11-13T19:50:17.006Z,3.83
2018-11-13T19:54:19.850Z,4.17
2018-11-13T19:58:22.711Z,5.30
2018-11-13T20:02:25.565Z,3.80
2018-11-13T20:06:28.443Z,4.00
2018-11-13T20:10:32.601Z,3.63
2018-11-13T20:14:35.595Z,4.23
2018-11-13T20:18:38.496Z,3.87
2018-11-13T20:22:41.390Z,4.97
2018-11-13T20:26:44.235Z,5.37
2018-11-13T20:30:47.191Z,3.10
2018-11-13T20:34:49.975Z,3.83
2018-11-13T20:38:52.831Z,4.67
2018-11-13T20:42:56.987Z,4.47
2018-11-13T20:46:59.837Z,3.77
2018-11-13T20:51:02.919Z,5.37
2018-11-13T20:55:06.007Z,5.10
2018-11-13T20:59:08.870Z,4.50
2018-11-13T21:03:11.927Z,5.27
2018-11-13T21:07:14.787Z,6.43
2018-11-13T21:11:17.653Z,5.20
2018-11-13T21:15:21.398Z,5.70
2018-11-13T21:19:24.306Z,6.33
2018-11-13T21:23:27.210Z,5.40
2018-11-13T21:27:30.208Z,6.20
2018-11-13T21:31:33.112Z,5.50
2018-11-13T21:35:35.974Z,6.57
2018-11-13T21:39:39.039Z,7.17
2018-11-13T21:43:42.032Z,7.10
2018-11-13T21:47:44.773Z,8.20
2018-11-13T21:51:47.623Z,7.40
2018-11-13T21:55:50.682Z,8.57
2018-11-13T21:59:53.628Z,9.00
2018-11-13T22:03:56.509Z,8.77
2018-11-13T22:07:59.380Z,9.60
2018-11-13T22:12:02.183Z,11.40
2018-11-13T22:16:05.307Z,10.50
2018-11-13T22:20:08.681Z,11.87
2018-11-13T22:24:11.747Z,10.47
2018-11-13T22:28:14.660Z,11.40
2018-11-13T22:32:17.483Z,12.20
2018-11-13T22:36:20.573Z,11.93
2018-11-13T22:40:24.685Z,11.83
2018-11-13T22:44:27.921Z,11.43
2018-11-13T22:48:30.411Z,13.63
2018-11-13T22:52:33.267Z,12.20
2018-11-13T22:56:36.130Z,13.50
2018-11-13T23:00:42.244Z,12.27
2018-11-13T23:04:45.067Z,13.53
2018-11-13T23:08:50.186Z,12.70
2018-11-13T23:12:53.100Z,11.80
2018-11-13T23:16:56.133Z,11.90
2018-11-13T23:20:58.990Z,12.93
2018-11-13T23:25:01.844Z,12.37
2018-11-13T23:29:04.935Z,12.40
2018-11-13T23:33:08.153Z,12.93
2018-11-13T23:37:10.651Z,13.80
2018-11-13T23:41:13.506Z,12.83
2018-11-13T23:45:17.728Z,14.63
2018-11-13T23:49:20.868Z,12.60
2018-11-13T23:53:23.933Z,13.60
2018-11-13T23:57:26.775Z,12.77
